Time;durP1;ratioP1;P1;durP2;ratioP2;P2;SDS_P1;SDS_P2;PMS_P1;PMS_P2;Temp;Humidity;BMP_temperature;BMP_pressure;BME280_temperature;BME280_humidity;BME280_pressure;Samples;Min_cycle;Max_cycle;Signal;HPM_P1;HPM_P2
2022/05/09 00:01:55;;;;;;;3.70;3.10;;;;;;;;;;4964446;28;20073;-60
2022/05/09 00:04:21;;;;;;;5.10;3.20;;;;;;;;;;4967403;28;20031;-62
2022/05/09 00:06:48;;;;;;;7.07;3.45;;;;;;;;;;4966365;28;20030;-63
2022/05/09 00:09:14;;;;;;;4.30;3.45;;;;;;;;;;4968874;28;20047;-61
2022/05/09 00:11:39;;;;;;;5.35;3.40;;;;;;;;;;4968713;28;20119;-65
2022/05/09 00:14:05;;;;;;;5.93;3.58;;;;;;;;;;4971300;28;20510;-64
2022/05/09 00:16:33;;;;;;;5.03;3.55;;;;;;;;;;4969329;28;20039;-62
2022/05/09 00:19:05;;;;;;;8.57;4.00;;;;;;;;;;4969211;28;20350;-62
2022/05/09 00:21:34;;;;;;;6.73;3.30;;;;;;;;;;4970844;28;20097;-63
2022/05/09 00:24:00;;;;;;;6.20;3.60;;;;;;;;;;4966980;28;20094;-60
2022/05/09 00:26:30;;;;;;;6.90;3.65;;;;;;;;;;4967321;28;20112;-61
2022/05/09 00:28:56;;;;;;;5.47;3.20;;;;;;;;;;4968089;28;20067;-62
2022/05/09 00:31:22;;;;;;;7.90;3.78;;;;;;;;;;4970918;28;20089;-60
2022/05/09 00:33:49;;;;;;;5.45;3.58;;;;;;;;;;4970268;28;20054;-60
2022/05/09 00:36:16;;;;;;;6.80;3.38;;;;;;;;;;4967957;28;20030;-62
2022/05/09 00:38:43;;;;;;;4.78;3.33;;;;;;;;;;4969858;28;20030;-60
2022/05/09 00:43:55;;;;;;;6.80;3.28;;;;;;;;;;4966807;28;20121;-61
2022/05/09 00:46:20;;;;;;;7.95;3.60;;;;;;;;;;4967732;28;20494;-63
2022/05/09 00:48:46;;;;;;;5.28;3.20;;;;;;;;;;4968078;28;20023;-66
2022/05/09 00:51:14;;;;;;;7.07;3.30;;;;;;;;;;4968335;28;20027;-60
2022/05/09 00:53:40;;;;;;;5.43;3.47;;;;;;;;;;4971860;28;20489;-61
2022/05/09 00:56:18;;;;;;;5.13;3.20;;;;;;;;;;4968037;28;20093;-61
2022/05/09 00:58:50;;;;;;;4.80;3.20;;;;;;;;;;4965923;28;20066;-60
2022/05/09 01:01:16;;;;;;;6.53;3.35;;;;;;;;;;4967471;28;20526;-62
2022/05/09 01:03:47;;;;;;;4.95;3.40;;;;;;;;;;4968505;28;20022;-61
2022/05/09 01:06:13;;;;;;;4.95;3.35;;;;;;;;;;4966178;28;20038;-61
2022/05/09 01:08:38;;;;;;;8.10;3.55;;;;;;;;;;4969990;28;20050;-64
2022/05/09 01:11:09;;;;;;;5.15;3.45;;;;;;;;;;4967048;28;20121;-62
2022/05/09 01:13:39;;;;;;;4.13;3.15;;;;;;;;;;4970831;28;20238;-60
2022/05/09 01:16:04;;;;;;;5.40;3.45;;;;;;;;;;4966487;28;20129;-62
2022/05/09 01:18:30;;;;;;;4.38;2.95;;;;;;;;;;4966875;28;20518;-61
2022/05/09 01:20:56;;;;;;;5.63;3.40;;;;;;;;;;4970264;28;20363;-63
2022/05/09 01:23:22;;;;;;;4.28;3.35;;;;;;;;;;4969920;28;20126;-61
2022/05/09 01:25:48;;;;;;;4.38;3.13;;;;;;;;;;4967412;28;20483;-66
2022/05/09 01:28:14;;;;;;;5.03;3.28;;;;;;;;;;4968661;28;20082;-61
2022/05/09 01:30:52;;;;;;;5.88;3.60;;;;;;;;;;4969698;28;20078;-63
2022/05/09 01:33:26;;;;;;;7.45;3.47;;;;;;;;;;4970686;28;20176;-61
2022/05/09 01:35:59;;;;;;;5.10;3.67;;;;;;;;;;4968553;28;20093;-62
2022/05/09 01:38:38;;;;;;;7.95;3.67;;;;;;;;;;4966370;28;20031;-63
2022/05/09 01:41:03;;;;;;;6.75;3.58;;;;;;;;;;4968946;28;20063;-62
2022/05/09 01:43:36;;;;;;;10.07;3.60;;;;;;;;;;4967710;28;20081;-61
2022/05/09 01:46:04;;;;;;;6.63;3.50;;;;;;;;;;4963313;28;20030;-62
2022/05/09 01:51:15;;;;;;;7.88;3.50;;;;;;;;;;4965716;28;20057;-62
2022/05/09 01:53:45;;;;;;;7.30;3.60;;;;;;;;;;4967976;28;20030;-60
2022/05/09 01:56:13;;;;;;;6.47;3.63;;;;;;;;;;4968336;28;20125;-60
2022/05/09 01:58:38;;;;;;;4.63;3.53;;;;;;;;;;4964801;28;20102;-65
2022/05/09 02:01:05;;;;;;;4.68;3.20;;;;;;;;;;4966513;28;20138;-61
2022/05/09 02:03:30;;;;;;;4.70;3.20;;;;;;;;;;4966154;28;20038;-60
2022/05/09 02:05:55;;;;;;;6.30;3.08;;;;;;;;;;4966821;28;20051;-61
2022/05/09 02:08:21;;;;;;;5.53;3.30;;;;;;;;;;4966792;28;20039;-61
2022/05/09 02:10:46;;;;;;;5.43;3.38;;;;;;;;;;4964869;28;20035;-66
2022/05/09 02:13:12;;;;;;;4.18;3.00;;;;;;;;;;4967332;28;20054;-60
2022/05/09 02:15:37;;;;;;;5.90;3.28;;;;;;;;;;4966879;28;20022;-61
2022/05/09 02:18:02;;;;;;;7.47;3.35;;;;;;;;;;4949500;28;20034;-61
2022/05/09 02:20:28;;;;;;;6.57;3.30;;;;;;;;;;4959508;28;20189;-62
2022/05/09 02:22:53;;;;;;;5.75;3.03;;;;;;;;;;4967155;28;20027;-60
2022/05/09 02:25:40;;;;;;;6.60;3.70;;;;;;;;;;4965878;28;20039;-61
2022/05/09 02:28:09;;;;;;;5.65;3.10;;;;;;;;;;4966849;28;20035;-63
2022/05/09 02:30:36;;;;;;;5.03;3.00;;;;;;;;;;4964101;28;20038;-69
2022/05/09 02:33:02;;;;;;;9.15;3.38;;;;;;;;;;4966660;28;20519;-69
2022/05/09 02:35:28;;;;;;;4.65;2.80;;;;;;;;;;4962814;28;20635;-69
2022/05/09 02:37:54;;;;;;;5.30;3.05;;;;;;;;;;4963341;28;20038;-69
2022/05/09 02:40:21;;;;;;;6.13;3.35;;;;;;;;;;4960413;28;20545;-70
2022/05/09 02:42:46;;;;;;;3.75;3.00;;;;;;;;;;4966277;28;20027;-69
2022/05/09 02:45:12;;;;;;;5.43;3.42;;;;;;;;;;4961523;28;20075;-69
2022/05/09 02:47:40;;;;;;;4.13;3.03;;;;;;;;;;4963650;28;20046;-66
2022/05/09 02:50:08;;;;;;;4.78;3.00;;;;;;;;;;4963566;28;20035;-64
2022/05/09 02:52:34;;;;;;;5.13;3.17;;;;;;;;;;4967619;28;20062;-64
2022/05/09 02:55:00;;;;;;;5.85;3.50;;;;;;;;;;4966999;28;20034;-64
2022/05/09 02:57:25;;;;;;;4.63;3.13;;;;;;;;;;4966571;28;20466;-64
2022/05/09 02:59:50;;;;;;;4.80;2.78;;;;;;;;;;4964649;28;20656;-64
2022/05/09 03:02:16;;;;;;;4.82;3.60;;;;;;;;;;4964804;28;20470;-64
2022/05/09 03:04:41;;;;;;;5.15;3.20;;;;;;;;;;4964418;28;20035;-65
2022/05/09 03:07:16;;;;;;;6.43;3.55;;;;;;;;;;4963391;28;20061;-64
2022/05/09 03:09:43;;;;;;;7.15;3.13;;;;;;;;;;4966671;28;20035;-64
2022/05/09 03:12:11;;;;;;;5.28;3.45;;;;;;;;;;4962610;28;20080;-64
2022/05/09 03:14:37;;;;;;;6.18;3.50;;;;;;;;;;4965373;28;20367;-64
2022/05/09 03:17:04;;;;;;;6.05;3.30;;;;;;;;;;4967398;28;20044;-67
2022/05/09 03:19:29;;;;;;;5.93;2.83;;;;;;;;;;4966732;28;20122;-65
2022/05/09 03:21:55;;;;;;;6.32;3.35;;;;;;;;;;4965310;28;20022;-66
2022/05/09 03:24:21;;;;;;;5.70;3.00;;;;;;;;;;4990054;28;20019;-65
2022/05/09 03:26:47;;;;;;;5.07;2.78;;;;;;;;;;4965755;28;20041;-65
2022/05/09 03:29:13;;;;;;;5.18;3.33;;;;;;;;;;4968625;28;20050;-66
2022/05/09 03:31:39;;;;;;;5.25;3.40;;;;;;;;;;4961283;28;20052;-66
2022/05/09 03:34:04;;;;;;;6.53;3.55;;;;;;;;;;4985401;28;20046;-66
2022/05/09 03:36:30;;;;;;;8.15;3.90;;;;;;;;;;4967235;28;20026;-65
2022/05/09 03:38:57;;;;;;;5.10;3.30;;;;;;;;;;4980331;28;20039;-63
2022/05/09 03:41:22;;;;;;;5.53;3.38;;;;;;;;;;4963952;28;20039;-66
2022/05/09 03:43:48;;;;;;;5.68;3.30;;;;;;;;;;4965800;28;20147;-66
2022/05/09 03:46:14;;;;;;;10.35;3.70;;;;;;;;;;4964918;28;20062;-64
2022/05/09 03:48:39;;;;;;;7.65;3.58;;;;;;;;;;4961880;28;20502;-66
2022/05/09 03:51:05;;;;;;;5.88;3.40;;;;;;;;;;4967928;28;20478;-66
2022/05/09 03:53:31;;;;;;;5.65;3.50;;;;;;;;;;4963738;28;20047;-63
2022/05/09 03:55:56;;;;;;;5.45;3.38;;;;;;;;;;4968513;28;20688;-64
2022/05/09 03:58:22;;;;;;;6.90;3.35;;;;;;;;;;4965229;28;20402;-65
2022/05/09 04:00:48;;;;;;;5.30;3.35;;;;;;;;;;4964642;28;20093;-64
2022/05/09 04:03:14;;;;;;;4.90;3.20;;;;;;;;;;4962690;28;20027;-64
2022/05/09 04:05:40;;;;;;;8.18;3.28;;;;;;;;;;4965393;28;20065;-64
2022/05/09 04:08:10;;;;;;;9.27;3.45;;;;;;;;;;4966192;28;20031;-64
2022/05/09 04:10:37;;;;;;;4.40;3.20;;;;;;;;;;4965434;28;20050;-64
2022/05/09 04:13:03;;;;;;;7.40;3.40;;;;;;;;;;4978934;28;20509;-65
2022/05/09 04:18:17;;;;;;;5.45;3.33;;;;;;;;;;4965014;28;20086;-64
2022/05/09 04:20:44;;;;;;;5.78;3.38;;;;;;;;;;4965402;28;20129;-63
2022/05/09 04:23:09;;;;;;;5.60;3.40;;;;;;;;;;4952614;28;20411;-64
2022/05/09 04:25:36;;;;;;;4.80;3.42;;;;;;;;;;4967946;28;20197;-66
2022/05/09 04:28:06;;;;;;;7.30;3.53;;;;;;;;;;4969024;28;20166;-66
2022/05/09 04:30:34;;;;;;;5.75;3.40;;;;;;;;;;4969416;28;20033;-64
2022/05/09 04:33:04;;;;;;;5.90;3.60;;;;;;;;;;4967232;28;20113;-65
2022/05/09 04:35:31;;;;;;;5.50;3.45;;;;;;;;;;4964952;28;20050;-65
2022/05/09 04:37:56;;;;;;;6.70;3.80;;;;;;;;;;4983829;28;20039;-64
2022/05/09 04:40:35;;;;;;;7.80;3.72;;;;;;;;;;4966131;28;20042;-64
2022/05/09 04:43:01;;;;;;;4.45;3.33;;;;;;;;;;4970352;28;20039;-65
2022/05/09 04:45:28;;;;;;;8.43;3.95;;;;;;;;;;4984212;28;20031;-64
2022/05/09 04:47:54;;;;;;;7.88;4.20;;;;;;;;;;4968858;28;20117;-65
2022/05/09 04:50:23;;;;;;;6.18;3.92;;;;;;;;;;4968680;28;20491;-65
2022/05/09 04:52:49;;;;;;;7.63;3.60;;;;;;;;;;4971670;28;20525;-63
2022/05/09 04:55:15;;;;;;;8.15;3.97;;;;;;;;;;4967380;28;20086;-63
2022/05/09 04:57:42;;;;;;;5.95;3.70;;;;;;;;;;4970023;28;20456;-65
2022/05/09 05:00:12;;;;;;;10.77;3.88;;;;;;;;;;4967128;28;20138;-63
2022/05/09 05:02:37;;;;;;;6.35;4.03;;;;;;;;;;4969417;28;20433;-63
2022/05/09 05:05:04;;;;;;;6.18;3.97;;;;;;;;;;4968946;28;20385;-63
2022/05/09 05:07:30;;;;;;;9.93;4.35;;;;;;;;;;4965896;28;20031;-63
2022/05/09 05:09:56;;;;;;;6.70;3.72;;;;;;;;;;4969905;28;20471;-65
2022/05/09 05:12:21;;;;;;;6.05;3.85;;;;;;;;;;4968803;28;20035;-65
2022/05/09 05:14:47;;;;;;;9.90;4.40;;;;;;;;;;4969453;28;20437;-65
2022/05/09 05:17:12;;;;;;;5.25;3.95;;;;;;;;;;4969315;28;20082;-66
2022/05/09 05:19:42;;;;;;;9.50;3.97;;;;;;;;;;4970258;28;20231;-66
2022/05/09 05:22:09;;;;;;;5.97;3.85;;;;;;;;;;4968766;28;20049;-64
2022/05/09 05:24:36;;;;;;;6.50;4.07;;;;;;;;;;4968033;28;20474;-64
2022/05/09 05:27:02;;;;;;;8.23;4.25;;;;;;;;;;4967835;28;20039;-64
2022/05/09 05:29:28;;;;;;;7.80;4.70;;;;;;;;;;4969530;28;20042;-64
2022/05/09 05:31:53;;;;;;;6.35;4.10;;;;;;;;;;4969231;28;20037;-64
2022/05/09 05:34:19;;;;;;;5.68;4.00;;;;;;;;;;4966749;28;20070;-63
2022/05/09 05:36:45;;;;;;;9.93;4.43;;;;;;;;;;4966605;28;20042;-65
2022/05/09 05:39:15;;;;;;;9.35;4.22;;;;;;;;;;4968460;28;20042;-65
2022/05/09 05:41:43;;;;;;;5.55;3.35;;;;;;;;;;4969192;28;20512;-63
2022/05/09 05:44:11;;;;;;;5.47;3.83;;;;;;;;;;4970121;28;20039;-66
2022/05/09 05:46:41;;;;;;;7.40;3.95;;;;;;;;;;4966369;28;20471;-64
2022/05/09 05:49:09;;;;;;;10.95;3.58;;;;;;;;;;4969315;28;20484;-64
2022/05/09 05:51:36;;;;;;;7.57;3.05;;;;;;;;;;4967480;28;20113;-63
2022/05/09 05:54:02;;;;;;;7.18;3.60;;;;;;;;;;4972266;28;20061;-65
2022/05/09 05:56:27;;;;;;;8.02;3.22;;;;;;;;;;4966617;28;20043;-64
2022/05/09 05:58:53;;;;;;;5.97;3.40;;;;;;;;;;4967800;28;20402;-64
2022/05/09 06:01:18;;;;;;;7.30;2.90;;;;;;;;;;4968129;28;20126;-65
2022/05/09 06:03:44;;;;;;;7.20;2.97;;;;;;;;;;4965363;28;20023;-64
2022/05/09 06:06:10;;;;;;;6.05;2.90;;;;;;;;;;4968827;28;20023;-65
2022/05/09 06:08:38;;;;;;;6.40;2.85;;;;;;;;;;4969081;28;20482;-66
2022/05/09 06:11:07;;;;;;;7.93;3.08;;;;;;;;;;4968111;28;20110;-65
2022/05/09 06:13:33;;;;;;;5.03;2.53;;;;;;;;;;4965515;28;20054;-65
2022/05/09 06:15:58;;;;;;;7.18;2.90;;;;;;;;;;4968946;28;20042;-65
2022/05/09 06:18:23;;;;;;;8.18;3.17;;;;;;;;;;4969901;28;20050;-65
2022/05/09 06:20:49;;;;;;;6.03;2.83;;;;;;;;;;4967803;28;20157;-65
2022/05/09 06:23:17;;;;;;;7.75;2.85;;;;;;;;;;4967017;28;20594;-65
2022/05/09 06:25:44;;;;;;;4.65;2.67;;;;;;;;;;4967529;28;20169;-65
2022/05/09 06:28:10;;;;;;;6.85;2.50;;;;;;;;;;4966277;28;20041;-64
2022/05/09 06:30:36;;;;;;;8.82;3.08;;;;;;;;;;4971462;28;20030;-65
2022/05/09 06:33:02;;;;;;;7.32;2.60;;;;;;;;;;4967398;28;20109;-63
2022/05/09 06:35:28;;;;;;;5.15;2.45;;;;;;;;;;4963506;28;20455;-64
2022/05/09 06:38:00;;;;;;;4.82;2.60;;;;;;;;;;4968512;28;20341;-64
2022/05/09 06:40:30;;;;;;;8.65;3.10;;;;;;;;;;4967759;28;20499;-64
2022/05/09 06:42:56;;;;;;;12.32;3.28;;;;;;;;;;4965123;28;20050;-64
2022/05/09 06:45:23;;;;;;;6.72;2.60;;;;;;;;;;4967751;28;20113;-65
2022/05/09 06:47:53;;;;;;;8.13;3.17;;;;;;;;;;4962631;28;20045;-64
2022/05/09 06:50:25;;;;;;;5.45;2.60;;;;;;;;;;4983051;28;20125;-65
2022/05/09 06:52:51;;;;;;;10.70;2.80;;;;;;;;;;4967410;28;20571;-65
2022/05/09 06:55:17;;;;;;;14.48;4.20;;;;;;;;;;4965499;28;20110;-65
2022/05/09 06:57:44;;;;;;;15.27;4.22;;;;;;;;;;4968053;28;20161;-66
2022/05/09 07:00:14;;;;;;;3.72;2.40;;;;;;;;;;4966477;28;20473;-65
2022/05/09 07:02:39;;;;;;;5.57;2.45;;;;;;;;;;4967470;28;20038;-64
2022/05/09 07:05:07;;;;;;;8.07;2.28;;;;;;;;;;4969635;28;20356;-65
2022/05/09 07:07:35;;;;;;;9.25;2.58;;;;;;;;;;4962359;28;20039;-65
2022/05/09 07:10:01;;;;;;;6.38;2.20;;;;;;;;;;4967692;28;20212;-65
2022/05/09 07:12:27;;;;;;;6.38;2.40;;;;;;;;;;4964970;28;20705;-70
2022/05/09 07:14:52;;;;;;;5.47;2.40;;;;;;;;;;4964811;28;20506;-65
2022/05/09 07:17:18;;;;;;;6.05;2.20;;;;;;;;;;4965122;28;20093;-64
2022/05/09 07:19:44;;;;;;;12.10;2.60;;;;;;;;;;4964763;28;20065;-65
2022/05/09 07:22:10;;;;;;;4.28;2.58;;;;;;;;;;4968212;28;20089;-64
2022/05/09 07:24:36;;;;;;;6.95;2.47;;;;;;;;;;4968238;28;20451;-65
2022/05/09 07:27:02;;;;;;;6.50;2.92;;;;;;;;;;4982458;28;20114;-65
2022/05/09 07:29:27;;;;;;;8.55;2.50;;;;;;;;;;4969210;28;20165;-65
2022/05/09 07:31:53;;;;;;;18.50;2.83;;;;;;;;;;4964611;28;20031;-65
2022/05/09 07:34:18;;;;;;;8.15;2.30;;;;;;;;;;4965344;28;20423;-64
2022/05/09 07:36:44;;;;;;;14.98;2.70;;;;;;;;;;4967641;28;20530;-65
2022/05/09 07:39:09;;;;;;;13.40;3.22;;;;;;;;;;4968772;28;20031;-65
2022/05/09 07:41:34;;;;;;;7.07;2.20;;;;;;;;;;4967800;28;20054;-66
2022/05/09 07:44:00;;;;;;;8.90;2.42;;;;;;;;;;4964106;28;20043;-65
2022/05/09 07:46:26;;;;;;;13.40;2.25;;;;;;;;;;4967618;28;20045;-66
2022/05/09 07:48:52;;;;;;;4.93;2.17;;;;;;;;;;4968393;28;20041;-64
2022/05/09 07:51:18;;;;;;;11.25;2.97;;;;;;;;;;4967163;28;20027;-65
2022/05/09 07:53:44;;;;;;;8.80;2.75;;;;;;;;;;4970376;28;20525;-66
2022/05/09 07:56:10;;;;;;;10.15;2.47;;;;;;;;;;4967779;28;20038;-65
2022/05/09 07:58:35;;;;;;;8.63;2.28;;;;;;;;;;4970935;28;20067;-66
2022/05/09 08:01:02;;;;;;;5.00;2.25;;;;;;;;;;4972066;28;20114;-66
2022/05/09 08:03:30;;;;;;;5.95;2.40;;;;;;;;;;4973789;28;20019;-66
2022/05/09 08:05:59;;;;;;;4.75;2.35;;;;;;;;;;4971500;28;20039;-65
2022/05/09 08:08:28;;;;;;;7.68;2.40;;;;;;;;;;4968661;28;20533;-65
2022/05/09 08:10:57;;;;;;;8.90;2.63;;;;;;;;;;4971658;28;20038;-65
2022/05/09 08:13:25;;;;;;;7.55;2.28;;;;;;;;;;4967613;28;20062;-65
2022/05/09 08:15:51;;;;;;;4.30;2.47;;;;;;;;;;4968054;28;20050;-64
2022/05/09 08:18:16;;;;;;;10.18;2.80;;;;;;;;;;4965512;28;20061;-66
2022/05/09 08:20:45;;;;;;;4.50;2.13;;;;;;;;;;4967626;28;20114;-64
2022/05/09 08:23:18;;;;;;;4.40;2.40;;;;;;;;;;4968176;28;20473;-64
2022/05/09 08:25:46;;;;;;;5.70;2.58;;;;;;;;;;4985159;28;20523;-65
2022/05/09 08:28:11;;;;;;;8.98;2.30;;;;;;;;;;4971925;28;20058;-65
2022/05/09 08:30:38;;;;;;;5.63;2.65;;;;;;;;;;4965213;28;20082;-66
2022/05/09 08:33:06;;;;;;;5.70;2.00;;;;;;;;;;4971091;28;20470;-67
2022/05/09 08:35:32;;;;;;;7.25;2.50;;;;;;;;;;4968332;28;20045;-65
2022/05/09 08:37:58;;;;;;;3.25;2.13;;;;;;;;;;4969694;28;20439;-65
2022/05/09 08:40:34;;;;;;;4.95;2.33;;;;;;;;;;4980745;28;20042;-64
2022/05/09 08:43:12;;;;;;;7.13;2.97;;;;;;;;;;4971475;28;20046;-64
2022/05/09 08:45:47;;;;;;;8.88;2.45;;;;;;;;;;4969054;28;20026;-66
2022/05/09 08:48:35;;;;;;;3.97;2.58;;;;;;;;;;4964562;28;20443;-65
2022/05/09 08:51:41;;;;;;;6.35;2.55;;;;;;;;;;4986388;28;20137;-64
2022/05/09 08:54:09;;;;;;;9.50;2.72;;;;;;;;;;4967279;28;20038;-66
2022/05/09 08:56:35;;;;;;;6.70;2.78;;;;;;;;;;4971029;28;20034;-64
2022/05/09 08:59:09;;;;;;;6.00;2.42;;;;;;;;;;4970703;28;20031;-65
2022/05/09 09:01:48;;;;;;;7.93;2.70;;;;;;;;;;4966713;28;20061;-66
2022/05/09 09:04:30;;;;;;;4.97;2.75;;;;;;;;;;4970374;28;20051;-64
2022/05/09 09:07:17;;;;;;;9.55;3.00;;;;;;;;;;4971964;28;20050;-66
2022/05/09 09:09:46;;;;;;;5.88;3.05;;;;;;;;;;4968634;28;20382;-64
2022/05/09 09:12:30;;;;;;;5.65;2.83;;;;;;;;;;4968137;28;20043;-66
2022/05/09 09:15:44;;;;;;;11.23;3.40;;;;;;;;;;4968271;28;20506;-64
2022/05/09 09:18:45;;;;;;;5.80;2.90;;;;;;;;;;4956192;28;20051;-63
2022/05/09 09:21:29;;;;;;;6.75;2.92;;;;;;;;;;4951227;28;20169;-67
2022/05/09 09:24:23;;;;;;;7.60;2.88;;;;;;;;;;4966604;28;20398;-64
2022/05/09 09:26:58;;;;;;;8.43;2.80;;;;;;;;;;4967230;28;20137;-64
2022/05/09 09:29:54;;;;;;;5.90;2.58;;;;;;;;;;4966494;28;20050;-65
2022/05/09 09:32:20;;;;;;;5.00;2.67;;;;;;;;;;4968165;28;20051;-64
2022/05/09 09:35:03;;;;;;;5.95;2.60;;;;;;;;;;4970995;28;20057;-64
2022/05/09 09:37:34;;;;;;;;;;;;;;;;;;4971117;28;20050;-65
2022/05/09 09:39:59;;;;;;;7.50;2.70;;;;;;;;;;4966498;28;19918;-65
2022/05/09 09:42:26;;;;;;;6.78;2.40;;;;;;;;;;4971099;28;20053;-64
2022/05/09 09:44:54;;;;;;;4.22;2.30;;;;;;;;;;4968564;28;20043;-65
2022/05/09 09:47:20;;;;;;;5.00;2.60;;;;;;;;;;4969653;28;20097;-66
2022/05/09 09:50:13;;;;;;;7.22;2.67;;;;;;;;;;4980560;28;20047;-64
2022/05/09 09:52:58;;;;;;;6.75;2.55;;;;;;;;;;4967623;28;20079;-65
2022/05/09 09:55:33;;;;;;;9.13;2.80;;;;;;;;;;4964798;28;20049;-64
2022/05/09 09:58:19;;;;;;;3.83;2.33;;;;;;;;;;4967775;28;20122;-65
2022/05/09 10:00:45;;;;;;;6.35;2.38;;;;;;;;;;4962714;28;20035;-64
2022/05/09 10:03:19;;;;;;;5.43;2.72;;;;;;;;;;4969013;28;20371;-65
2022/05/09 10:05:46;;;;;;;6.78;2.63;;;;;;;;;;4964981;28;20039;-64
2022/05/09 10:08:25;;;;;;;8.18;2.95;;;;;;;;;;4968521;28;20043;-64
2022/05/09 10:11:20;;;;;;;5.85;2.42;;;;;;;;;;4966439;28;20509;-65
2022/05/09 10:13:52;;;;;;;10.02;2.63;;;;;;;;;;4966804;28;20510;-64
2022/05/09 10:16:45;;;;;;;10.15;2.90;;;;;;;;;;4967643;28;20034;-65
2022/05/09 10:19:27;;;;;;;10.82;2.58;;;;;;;;;;4965826;28;20237;-64
2022/05/09 10:24:47;;;;;;;6.95;2.78;;;;;;;;;;4966060;28;20037;-65
2022/05/09 10:27:28;;;;;;;9.25;2.60;;;;;;;;;;4966078;28;20073;-64
2022/05/09 10:29:56;;;;;;;5.15;2.60;;;;;;;;;;4965561;28;20078;-64
2022/05/09 10:32:29;;;;;;;11.85;3.25;;;;;;;;;;4966134;28;20031;-64
2022/05/09 10:35:19;;;;;;;6.35;2.58;;;;;;;;;;4968129;28;20066;-65
2022/05/09 10:37:58;;;;;;;5.13;2.58;;;;;;;;;;4967250;28;20070;-65
2022/05/09 10:40:26;;;;;;;5.63;2.65;;;;;;;;;;4967709;28;20034;-65
2022/05/09 10:43:23;;;;;;;10.40;3.05;;;;;;;;;;4966763;28;20110;-64
2022/05/09 10:45:50;;;;;;;5.93;2.95;;;;;;;;;;4965204;28;20023;-64
2022/05/09 10:48:18;;;;;;;5.68;2.78;;;;;;;;;;4964206;28;20088;-64
2022/05/09 10:51:03;;;;;;;4.80;2.42;;;;;;;;;;4963729;28;20042;-64
2022/05/09 10:53:48;;;;;;;4.70;2.63;;;;;;;;;;4978104;28;20066;-64
2022/05/09 10:56:20;;;;;;;5.28;2.60;;;;;;;;;;4966074;28;20046;-64
2022/05/09 10:59:00;;;;;;;6.15;2.50;;;;;;;;;;4968882;28;20403;-65
2022/05/09 11:02:00;;;;;;;8.27;2.72;;;;;;;;;;4971920;28;20121;-64
2022/05/09 11:04:28;;;;;;;11.57;2.75;;;;;;;;;;4962019;28;20190;-65
2022/05/09 11:07:00;;;;;;;8.40;2.60;;;;;;;;;;4967342;28;20030;-66
2022/05/09 11:09:51;;;;;;;7.53;2.58;;;;;;;;;;4964095;28;20110;-66
2022/05/09 11:12:35;;;;;;;5.13;2.70;;;;;;;;;;4966058;28;20507;-65
2022/05/09 11:15:27;;;;;;;6.00;2.60;;;;;;;;;;4967076;28;20234;-68
2022/05/09 11:17:53;;;;;;;6.22;2.42;;;;;;;;;;4967208;28;20046;-64
2022/05/09 11:20:30;;;;;;;7.10;2.40;;;;;;;;;;4963527;28;20030;-65
2022/05/09 11:23:32;;;;;;;4.43;2.15;;;;;;;;;;4967432;28;20085;-65
2022/05/09 11:26:09;;;;;;;4.27;2.30;;;;;;;;;;4968783;28;21212;-65
2022/05/09 11:28:47;;;;;;;5.63;2.17;;;;;;;;;;4971842;28;20325;-65
2022/05/09 11:31:40;;;;;;;6.10;2.63;;;;;;;;;;4966484;28;20066;-65
2022/05/09 11:34:24;;;;;;;5.32;2.25;;;;;;;;;;4968184;28;20114;-64
2022/05/09 11:37:02;;;;;;;3.42;2.30;;;;;;;;;;4970833;28;20053;-65
2022/05/09 11:39:39;;;;;;;6.93;2.60;;;;;;;;;;4971212;28;20035;-65
2022/05/09 11:45:16;;;;;;;10.50;2.83;;;;;;;;;;4969217;28;20057;-64
2022/05/09 11:48:25;;;;;;;7.93;3.22;;;;;;;;;;4984374;28;20368;-64
2022/05/09 11:51:14;;;;;;;4.50;2.80;;;;;;;;;;4969214;28;20035;-64
2022/05/09 11:53:44;;;;;;;4.22;2.50;;;;;;;;;;4990272;28;20398;-64
2022/05/09 11:56:10;;;;;;;7.47;2.55;;;;;;;;;;4988602;28;20140;-65
2022/05/09 11:58:41;;;;;;;5.72;3.00;;;;;;;;;;4971782;28;20035;-63
2022/05/09 12:01:07;;;;;;;6.53;2.83;;;;;;;;;;4972152;28;20494;-65
2022/05/09 12:03:38;;;;;;;7.78;2.60;;;;;;;;;;4972409;28;20106;-64
2022/05/09 12:06:04;;;;;;;6.63;2.80;;;;;;;;;;4975571;28;20074;-65
2022/05/09 12:08:56;;;;;;;4.85;2.60;;;;;;;;;;4970135;28;20070;-64
2022/05/09 12:11:24;;;;;;;5.05;2.80;;;;;;;;;;4967440;28;20049;-64
2022/05/09 12:13:51;;;;;;;5.57;2.75;;;;;;;;;;4970901;28;20078;-65
2022/05/09 12:16:51;;;;;;;11.20;2.58;;;;;;;;;;4968454;28;20062;-65
2022/05/09 12:19:34;;;;;;;4.68;2.55;;;;;;;;;;4957238;28;20715;-64
2022/05/09 12:22:22;;;;;;;;;;;;;;;;;;4969868;28;20115;-65
2022/05/09 12:24:48;;;;;;;5.65;3.72;;;;;;;;;;4968253;28;19968;-64
2022/05/09 12:27:40;;;;;;;5.20;2.67;;;;;;;;;;4968190;28;20450;-65
2022/05/09 12:30:33;;;;;;;5.07;2.75;;;;;;;;;;4966522;28;20601;-64
2022/05/09 12:32:59;;;;;;;;;;;;;;;;;;4966666;28;20054;-64
2022/05/09 12:35:24;;;;;;;5.65;2.63;;;;;;;;;;4969532;28;19927;-64
2022/05/09 12:37:50;;;;;;;5.40;2.45;;;;;;;;;;4972505;28;20045;-66
2022/05/09 12:40:21;;;;;;;5.72;2.35;;;;;;;;;;4969316;28;20129;-65
2022/05/09 12:42:54;;;;;;;5.60;2.50;;;;;;;;;;4975969;28;20029;-66
2022/05/09 12:45:20;;;;;;;4.60;3.00;;;;;;;;;;4972455;28;20046;-64
2022/05/09 12:47:47;;;;;;;5.65;2.85;;;;;;;;;;4967821;28;20414;-64
2022/05/09 12:50:25;;;;;;;5.20;2.50;;;;;;;;;;4967724;28;20468;-65
2022/05/09 12:52:56;;;;;;;3.35;2.08;;;;;;;;;;4968183;28;20129;-64
2022/05/09 12:58:22;;;;;;;9.80;2.83;;;;;;;;;;4966084;28;20075;-64
2022/05/09 13:00:48;;;;;;;3.78;2.50;;;;;;;;;;4971375;28;20108;-64
2022/05/09 13:03:14;;;;;;;9.90;2.88;;;;;;;;;;4968581;28;20031;-64
2022/05/09 13:05:42;;;;;;;4.38;2.70;;;;;;;;;;4971687;28;20035;-65
2022/05/09 13:08:13;;;;;;;5.05;2.40;;;;;;;;;;4973842;28;20114;-65
2022/05/09 13:10:56;;;;;;;5.38;2.25;;;;;;;;;;4971974;28;20049;-64
2022/05/09 13:13:26;;;;;;;3.05;2.28;;;;;;;;;;4972229;28;20161;-63
2022/05/09 13:15:52;;;;;;;5.50;2.40;;;;;;;;;;4972672;28;20076;-66
2022/05/09 13:18:25;;;;;;;3.65;2.10;;;;;;;;;;4970050;28;20376;-64
2022/05/09 13:20:53;;;;;;;4.68;2.45;;;;;;;;;;4967913;28;20426;-65
2022/05/09 13:23:30;;;;;;;2.47;2.28;;;;;;;;;;4968958;28;20031;-65
2022/05/09 13:26:00;;;;;;;8.13;2.35;;;;;;;;;;4971254;28;20035;-65
2022/05/09 13:28:52;;;;;;;8.45;2.28;;;;;;;;;;4970426;28;20498;-65
2022/05/09 13:32:12;;;;;;;4.03;2.20;;;;;;;;;;4971086;28;20390;-64
2022/05/09 13:34:53;;;;;;;3.13;2.35;;;;;;;;;;4971976;28;20483;-64
2022/05/09 13:37:34;;;;;;;3.45;2.67;;;;;;;;;;4965625;28;20685;-65
2022/05/09 13:40:09;;;;;;;7.07;2.33;;;;;;;;;;4968167;28;20042;-65
2022/05/09 13:42:39;;;;;;;7.40;2.17;;;;;;;;;;4973380;28;20037;-63
2022/05/09 13:45:26;;;;;;;8.32;2.40;;;;;;;;;;4965221;28;20058;-66
2022/05/09 13:48:07;;;;;;;3.75;2.38;;;;;;;;;;4968393;28;20035;-64
2022/05/09 13:50:44;;;;;;;3.90;2.22;;;;;;;;;;4969277;28;20497;-64
2022/05/09 13:53:18;;;;;;;5.93;2.10;;;;;;;;;;4968893;28;20071;-65
2022/05/09 13:55:45;;;;;;;4.20;2.30;;;;;;;;;;4965900;28;20171;-64
2022/05/09 13:58:18;;;;;;;4.22;2.78;;;;;;;;;;4965845;28;20133;-64
2022/05/09 14:00:49;;;;;;;6.22;2.50;;;;;;;;;;4965104;28;20033;-65
2022/05/09 14:03:26;;;;;;;2.78;2.00;;;;;;;;;;4968481;28;20086;-65
2022/05/09 14:05:56;;;;;;;4.40;2.28;;;;;;;;;;4972430;28;20110;-65
2022/05/09 14:08:24;;;;;;;4.78;2.20;;;;;;;;;;4969826;28;20090;-64
2022/05/09 14:11:00;;;;;;;6.00;2.40;;;;;;;;;;4968357;28;20201;-64
2022/05/09 14:13:41;;;;;;;4.50;2.40;;;;;;;;;;4962423;28;20103;-65
2022/05/09 14:16:06;;;;;;;5.38;2.50;;;;;;;;;;4986742;28;20512;-64
2022/05/09 14:18:36;;;;;;;5.90;2.72;;;;;;;;;;4969502;28;20027;-63
2022/05/09 14:21:20;;;;;;;5.65;2.40;;;;;;;;;;4947247;28;20047;-65
2022/05/09 14:23:49;;;;;;;6.95;2.58;;;;;;;;;;4965874;28;20142;-64
2022/05/09 14:32:06;;;;;;;6.50;2.47;;;;;;;;;;4968740;28;20122;-64
2022/05/09 14:34:54;;;;;;;3.08;2.45;;;;;;;;;;4964953;28;20046;-65
2022/05/09 14:37:28;;;;;;;8.73;2.08;;;;;;;;;;4983198;28;20051;-64
2022/05/09 14:39:59;;;;;;;6.22;2.25;;;;;;;;;;4961851;28;20043;-68
2022/05/09 14:42:31;;;;;;;5.97;2.20;;;;;;;;;;4984242;28;20043;-64
2022/05/09 14:45:02;;;;;;;6.47;2.25;;;;;;;;;;4969322;28;20109;-64
2022/05/09 14:47:32;;;;;;;2.70;2.00;;;;;;;;;;4967401;28;20479;-64
2022/05/09 14:50:07;;;;;;;6.47;2.22;;;;;;;;;;4962029;28;20122;-65
2022/05/09 14:52:56;;;;;;;4.82;2.30;;;;;;;;;;4966876;28;20035;-65
2022/05/09 14:58:34;;;;;;;5.80;2.47;;;;;;;;;;4967134;28;20073;-62
2022/05/09 15:01:05;;;;;;;4.97;2.28;;;;;;;;;;4968609;28;20045;-63
2022/05/09 15:03:33;;;;;;;4.20;2.30;;;;;;;;;;4960736;28;20027;-63
2022/05/09 15:06:00;;;;;;;7.28;2.80;;;;;;;;;;4968199;28;20034;-63
2022/05/09 15:08:27;;;;;;;6.22;2.30;;;;;;;;;;4966653;28;20421;-64
2022/05/09 15:10:54;;;;;;;4.18;2.40;;;;;;;;;;4962130;28;20498;-66
2022/05/09 15:13:22;;;;;;;2.78;2.42;;;;;;;;;;4959573;28;20049;-62
2022/05/09 15:15:50;;;;;;;2.40;1.90;;;;;;;;;;4964323;28;20031;-65
2022/05/09 15:18:16;;;;;;;5.00;2.10;;;;;;;;;;4961809;28;20105;-64
2022/05/09 15:20:42;;;;;;;3.75;1.92;;;;;;;;;;4965591;28;20034;-64
2022/05/09 15:23:08;;;;;;;5.55;2.42;;;;;;;;;;4966923;28;20033;-64
2022/05/09 15:25:34;;;;;;;6.07;2.25;;;;;;;;;;4970552;28;20625;-64
2022/05/09 15:28:00;;;;;;;3.53;2.45;;;;;;;;;;4965892;28;20087;-64
2022/05/09 15:30:25;;;;;;;3.47;2.00;;;;;;;;;;4966397;28;20023;-64
2022/05/09 15:32:53;;;;;;;8.20;2.33;;;;;;;;;;4977167;28;20130;-64